Capt. Tom EchoLS Sr. — WDC3771 — position and weather

sailwx.info

Track history (hours):
 
Tides and Currents Weather Stations Pressure Air Temp Water Temp Dewpoint Dewpoint Depression Visibility Wind Speed Wind Dir Waves Ship Positions

Capt. Tom EchoLS Sr.

Owner: Echo Towing Service, Inc. P.O. Box 446 Baytown, Texas 77522, Baytown, TX. More information available from US FCC via Universal Licensing System and Coast Guard Vessel Documentation Center.

Last reported at 2018-Jun-24 20:00 UTC. Time now 2018-Jun-24 20:26 UTC.
Position N 29°25' W 094°49'.

Length 20 m; draft 2.4 m.

Type: . MMSI: 367125100.

Date/timePositionNaut miles runAvg speedWind from/ knotsBaromVisibWave heightAir tempDewpointWater temp
2018-Jun-24 20:00N 29°25' W 094°49'3 6.2
2018-Jun-24 19:29N 29°22' W 094°47'4 3.7
2018-Jun-24 18:17N 29°25' W 094°43'0 0.4
2018-Jun-24 17:52N 29°25' W 094°44'1 3.9
2018-Jun-24 17:30N 29°24' W 094°45'2 5.0
2018-Jun-24 17:00N 29°22' W 094°47'3 5.7
2018-Jun-24 16:30N 29°21' W 094°49'3 5.8
2018-Jun-24 16:00N 29°19' W 094°52'3 5.5
2018-Jun-24 15:30N 29°17' W 094°54'3 5.5
2018-Jun-24 14:55N 29°17' W 094°58'2 4.0
2018-Jun-24 14:30N 29°16' W 094°59'2 4.5
2018-Jun-24 14:00N 29°14' W 095°01'3 5.1
2018-Jun-24 13:30N 29°12' W 095°03'3 5.3
2018-Jun-24 13:00N 29°11' W 095°06'3 5.2
2018-Jun-24 12:30N 29°10' W 095°08'2 4.3
2018-Jun-24 12:00N 29°08' W 095°10'0 0.0
2018-Jun-24 11:30N 29°08' W 095°10'0 0.0
2018-Jun-24 11:00N 29°08' W 095°10'0 0.0
2018-Jun-24 10:30N 29°08' W 095°10'0 0.0
2018-Jun-24 10:00N 29°08' W 095°10'0 0.2
2018-Jun-24 09:30N 29°08' W 095°10'1 1.9
2018-Jun-24 09:00N 29°07' W 095°11'3 4.8
2018-Jun-24 08:28N 29°05' W 095°12'4 0.6
2018-Jun-24 01:20N 29°01' W 095°14'2 6.2
2018-Jun-24 00:58N 29°03' W 095°13'3 5.7
2018-Jun-24 00:30N 29°06' W 095°12'2 5.0
2018-Jun-24 00:01N 29°08' W 095°10'3 5.3
2018-Jun-23 23:30N 29°10' W 095°08'3 5.4
2018-Jun-23 22:53N 29°11' W 095°05'2 4.8
2018-Jun-23 22:31N 29°12' W 095°03'1 1.2
2018-Jun-23 22:00N 29°13' W 095°02'1 1.9
2018-Jun-23 21:30N 29°13' W 095°02'3 5.7
2018-Jun-23 21:00N 29°16' W 094°60'3 5.4
2018-Jun-23 20:31N 29°17' W 094°57'3 5.4
2018-Jun-23 20:01N 29°17' W 094°54'2 4.5
2018-Jun-23 19:30N 29°19' W 094°52'3 5.6
2018-Jun-23 19:01N 29°20' W 094°50'2 4.8
2018-Jun-23 18:30N 29°22' W 094°48'3 1.4
2018-Jun-23 16:19N 29°24' W 094°45'2 6.3
2018-Jun-23 16:00N 29°23' W 094°47'3 5.4
2018-Jun-23 15:30N 29°24' W 094°49'6 7.9
2018-Jun-23 14:45N 29°30' W 094°52'3 7.7
2018-Jun-23 14:20N 29°32' W 094°54'3 7.5
2018-Jun-23 13:59N 29°34' W 094°56'4 7.6
2018-Jun-23 13:30N 29°38' W 094°58'4 7.9
2018-Jun-23 13:01N 29°41' W 094°59'7 5.4
2018-Jun-23 11:38N 29°47' W 095°04'0 0.0
2018-Jun-23 11:29N 29°47' W 095°04'1 1.2
2018-Jun-23 10:54N 29°47' W 095°05'1 3.4
2018-Jun-23 10:29N 29°46' W 095°06'1 1.0
2018-Jun-23 09:57N 29°46' W 095°05'0 0.1
2018-Jun-23 09:29N 29°46' W 095°05'2 3.0
2018-Jun-23 08:51N 29°45' W 095°04'2 5.3
2018-Jun-23 08:30N 29°44' W 095°02'3 4.8
2018-Jun-23 07:54N 29°42' W 094°60'3 5.3
2018-Jun-23 07:21N 29°39' W 094°58'2 5.5
2018-Jun-23 06:57N 29°37' W 094°57'3 5.6
2018-Jun-23 06:30N 29°35' W 094°56'3 5.6
2018-Jun-23 06:00N 29°33' W 094°54'3 5.3
2018-Jun-23 05:30N 29°30' W 094°52'3 5.0
2018-Jun-23 04:59N 29°28' W 094°51'2 4.7
2018-Jun-23 04:30N 29°26' W 094°50'2 4.6
2018-Jun-23 03:59N 29°24' W 094°49'2 4.3
2018-Jun-23 03:31N 29°22' W 094°47'2 4.3
2018-Jun-23 03:01N 29°24' W 094°45'2 4.6
2018-Jun-23 02:30N 29°25' W 094°43'0 0.7
2018-Jun-23 02:01N 29°26' W 094°43'0 0.6
2018-Jun-23 01:30N 29°25' W 094°43'1 2.8
2018-Jun-23 01:00N 29°24' W 094°45'2 2.9
2018-Jun-23 00:27N 29°23' W 094°46'2 3.9
2018-Jun-23 00:00N 29°22' W 094°47'1 2.8
2018-Jun-22 23:29N 29°21' W 094°49'1 2.1
2018-Jun-22 23:00N 29°21' W 094°50'1 2.7
2018-Jun-22 22:31N 29°20' W 094°51'3 5.1
2018-Jun-22 22:01N 29°18' W 094°53'2 4.2
2018-Jun-22 21:31N 29°17' W 094°55'3 5.2
2018-Jun-22 21:01N 29°17' W 094°58'2 5.0
2018-Jun-22 20:31N 29°15' W 095°00'2 4.5
2018-Jun-22 20:01N 29°13' W 095°02'2 4.2
2018-Jun-22 19:30N 29°12' W 095°04'2 4.8
2018-Jun-22 19:01N 29°11' W 095°06'2 4.0
2018-Jun-22 18:30N 29°10' W 095°08'3 5.2
2018-Jun-22 18:01N 29°08' W 095°10'3 5.3
2018-Jun-22 17:31N 29°06' W 095°12'3 5.1
2018-Jun-22 17:01N 29°04' W 095°13'3 5.1
2018-Jun-22 16:31N 29°01' W 095°14'3 5.4
2018-Jun-22 16:00N 28°59' W 095°16'4 4.6
2018-Jun-22 15:02N 28°56' W 095°20'0 4.6
2018-Jun-22 15:00N 28°56' W 095°20'0 0.7
2018-Jun-22 14:30N 28°57' W 095°20'0 0.0
2018-Jun-22 14:00N 28°57' W 095°20'0 0.9
2018-Jun-22 13:30N 28°57' W 095°20'0 0.9
2018-Jun-22 13:01N 28°57' W 095°20'0 0.0
2018-Jun-22 12:29N 28°57' W 095°20'1 1.0
2018-Jun-22 11:59N 28°57' W 095°20'0 0.3
2018-Jun-22 11:25N 28°57' W 095°20'0 0.4
2018-Jun-22 11:00N 28°57' W 095°20'0 0.2
2018-Jun-22 10:27N 28°57' W 095°20'0 0.0
2018-Jun-22 09:59N 28°57' W 095°20'1 2.5
2018-Jun-22 09:29N 28°57' W 095°19'4 7.5
2018-Jun-22 09:01N 28°59' W 095°16'3 6.8
2018-Jun-22 08:31N 29°02' W 095°14'4 7.1
2018-Jun-22 08:01N 29°05' W 095°12'3 6.3
2018-Jun-22 07:31N 29°08' W 095°10'4 7.1
2018-Jun-22 07:01N 29°10' W 095°07'4 7.9
2018-Jun-22 06:31N 29°12' W 095°03'4 7.7
2018-Jun-22 06:01N 29°15' W 095°00'4 7.5
2018-Jun-22 05:31N 29°17' W 094°57'4 7.3
2018-Jun-22 05:00N 29°18' W 094°53'4 8.0
2018-Jun-22 04:29N 29°21' W 094°49'4 8.5
2018-Jun-22 04:00N 29°24' W 094°46'3 5.4
2018-Jun-22 03:30N 29°25' W 094°43'0 0.1
2018-Jun-22 03:00N 29°25' W 094°43'2 4.3
2018-Jun-22 02:27N 29°24' W 094°45'3 6.0
2018-Jun-22 02:00N 29°22' W 094°48'4 7.8
2018-Jun-22 01:28N 29°26' W 094°50'4 8.1
2018-Jun-22 00:59N 29°29' W 094°52'4 7.7
2018-Jun-22 00:28N 29°33' W 094°54'3 7.3
2018-Jun-22 00:00N 29°35' W 094°56'4 7.3
2018-Jun-21 23:29N 29°39' W 094°58'4 0.3
2018-Jun-21 08:29N 29°42' W 095°01'4 6.7
2018-Jun-21 07:56N 29°39' W 094°58'13 7.8
2018-Jun-21 06:20N 29°28' W 094°51'3 7.9
2018-Jun-21 05:55N 29°25' W 094°50'3 7.6
2018-Jun-21 05:30N 29°23' W 094°48'2 5.0
2018-Jun-21 05:00N 29°22' W 094°51'3 5.7
2018-Jun-21 04:30N 29°22' W 094°54'0 0.1
2018-Jun-21 04:00N 29°22' W 094°54'0 0.2
2018-Jun-21 03:31N 29°22' W 094°54'2 4.3
2018-Jun-21 02:58N 29°23' W 094°52'3 7.1
2018-Jun-21 02:30N 29°21' W 094°49'2 3.1
2018-Jun-21 02:00N 29°22' W 094°47'5 6.1
2018-Jun-21 01:13N 29°26' W 094°43'0 0.1
2018-Jun-21 01:00N 29°26' W 094°43'0 0.2
2018-Jun-21 00:25N 29°26' W 094°43'0 0.7
2018-Jun-20 23:56N 29°25' W 094°43'1 1.5
2018-Jun-20 23:17N 29°25' W 094°44'1 3.4
2018-Jun-20 22:51N 29°24' W 094°45'1 3.6
2018-Jun-20 22:30N 29°23' W 094°46'2 3.9
2018-Jun-20 21:58N 29°21' W 094°48'2 3.3
2018-Jun-20 21:30N 29°21' W 094°50'2 4.2
2018-Jun-20 20:58N 29°19' W 094°52'2 4.2
2018-Jun-20 20:30N 29°18' W 094°53'1 2.7
2018-Jun-20 20:00N 29°17' W 094°55'2 3.9
2018-Jun-20 19:30N 29°17' W 094°57'2 3.6
2018-Jun-20 19:00N 29°17' W 094°59'1 2.4
2018-Jun-20 18:30N 29°16' W 094°60'2 4.3
2018-Jun-20 18:00N 29°14' W 095°01'2 4.1
2018-Jun-20 17:30N 29°12' W 095°03'2 4.1
2018-Jun-20 17:00N 29°11' W 095°05'2 3.8
2018-Jun-20 16:30N 29°10' W 095°07'2 4.1
2018-Jun-20 16:01N 29°09' W 095°09'2 4.2
2018-Jun-20 15:30N 29°08' W 095°10'2 4.2
2018-Jun-20 15:00N 29°06' W 095°12'2 4.1
2018-Jun-20 14:30N 29°04' W 095°13'2 3.8
2018-Jun-20 14:00N 29°03' W 095°14'2 4.0
2018-Jun-20 13:30N 29°01' W 095°14'2 4.2
2018-Jun-20 13:00N 28°59' W 095°16'2 4.3
2018-Jun-20 12:30N 28°57' W 095°18'2 3.8
2018-Jun-20 11:52N 28°56' W 095°20'15 1.7
2018-Jun-20 03:14N 29°08' W 095°10'1 6.1
2018-Jun-20 03:00N 29°09' W 095°09'3 5.7
2018-Jun-20 02:30N 29°11' W 095°06'3 6.4
2018-Jun-20 02:00N 29°12' W 095°03'3 6.1
2018-Jun-20 01:30N 29°15' W 095°01'3 6.2
2018-Jun-20 01:00N 29°17' W 094°58'3 5.9
2018-Jun-20 00:30N 29°17' W 094°55'2 4.6
2018-Jun-20 00:00N 29°18' W 094°53'3 6.6
2018-Jun-19 23:29N 29°21' W 094°50'3 5.4
2018-Jun-19 23:00N 29°23' W 094°49'4 7.8
2018-Jun-19 22:26N 29°27' W 094°51'4 7.2
2018-Jun-19 21:53N 29°31' W 094°53'3 7.1
2018-Jun-19 21:29N 29°33' W 094°55'5 7.0
2018-Jun-19 20:49N 29°37' W 094°57'3 7.0
2018-Jun-19 20:27N 29°39' W 094°58'3 0.4
2018-Jun-19 13:19N 29°42' W 094°60'3 6.5
2018-Jun-19 12:49N 29°39' W 094°58'17 6.2
2018-Jun-19 10:08N 29°24' W 094°49'1 5.6
2018-Jun-19 10:00N 29°24' W 094°49'2 4.6
2018-Jun-19 09:29N 29°21' W 094°49'3 6.8
2018-Jun-19 09:00N 29°19' W 094°52'3 6.6
2018-Jun-19 08:30N 29°17' W 094°55'4 7.1
2018-Jun-19 08:00N 29°17' W 094°59'3 6.9
2018-Jun-19 07:30N 29°14' W 095°01'3 6.5
2018-Jun-19 07:00N 29°12' W 095°04'2 5.0
2018-Jun-19 06:30N 29°10' W 095°06'2 5.0
2018-Jun-19 06:00N 29°09' W 095°09'3 5.6
2018-Jun-19 05:30N 29°07' W 095°11'3 6.2
2018-Jun-19 05:00N 29°04' W 095°13'3 6.0
2018-Jun-19 04:30N 29°02' W 095°14'3 5.8
2018-Jun-19 04:00N 28°59' W 095°16'4 4.6
2018-Jun-19 03:03N 28°57' W 095°20'0 1.0
2018-Jun-19 02:58N 28°57' W 095°20'0 0.1
2018-Jun-19 02:26N 28°57' W 095°20'2 2.8
2018-Jun-19 01:46N 28°57' W 095°18'2 6.0
2018-Jun-19 01:30N 28°59' W 095°17'0 0.7
2018-Jun-19 01:00N 28°59' W 095°16'3 6.0
2018-Jun-19 00:30N 29°01' W 095°14'3 6.2
2018-Jun-19 00:00N 29°04' W 095°13'3 6.0
2018-Jun-18 23:30N 29°07' W 095°12'3 6.1
2018-Jun-18 23:00N 29°09' W 095°09'3 5.6
2018-Jun-18 22:30N 29°10' W 095°06'3 5.7
2018-Jun-18 22:00N 29°12' W 095°04'3 5.5
2018-Jun-18 21:30N 29°14' W 095°01'3 5.9
2018-Jun-18 21:00N 29°16' W 094°59'3 5.7
2018-Jun-18 20:30N 29°17' W 094°56'3 5.1
2018-Jun-18 20:00N 29°18' W 094°53'3 5.7
2018-Jun-18 19:29N 29°20' W 094°51'3 5.6
2018-Jun-18 18:59N 29°21' W 094°48'6 3.5
2018-Jun-18 17:15N 29°26' W 094°43'0 0.0
2018-Jun-18 16:53N 29°26' W 094°43'1 2.6
2018-Jun-18 16:26N 29°25' W 094°44'3 6.6
2018-Jun-18 16:00N 29°23' W 094°47'2 3.9
2018-Jun-18 15:30N 29°23' W 094°49'3 5.9
2018-Jun-18 15:00N 29°26' W 094°50'4 7.0
2018-Jun-18 14:27N 29°30' W 094°52'5 7.6
2018-Jun-18 13:46N 29°34' W 094°55'3 7.7
2018-Jun-18 13:19N 29°37' W 094°57'3 8.2
2018-Jun-18 12:58N 29°40' W 094°58'5 1.2
2018-Jun-18 08:41N 29°44' W 095°02'2 4.5
2018-Jun-18 08:18N 29°42' W 095°01'2 5.2
2018-Jun-18 08:00N 29°42' W 094°59'3 5.1
2018-Jun-18 07:29N 29°39' W 094°58'16 5.5
2018-Jun-18 04:31N 29°25' W 094°49'0 5.0
2018-Jun-18 04:29N 29°24' W 094°49'2 5.1
2018-Jun-18 04:00N 29°22' W 094°48'2 4.5
2018-Jun-18 03:30N 29°22' W 094°51'2 4.4
2018-Jun-18 02:58N 29°22' W 094°53'1 1.8
2018-Jun-18 02:30N 29°22' W 094°54'0 0.0
2018-Jun-18 02:01N 29°22' W 094°54'4 4.5
2018-Jun-18 01:02N 29°22' W 094°49'1 6.4
2018-Jun-18 00:57N 29°22' W 094°49'2 4.7
2018-Jun-18 00:31N 29°20' W 094°50'3 6.1
2018-Jun-18 00:00N 29°18' W 094°53'3 5.2
2018-Jun-17 23:31N 29°17' W 094°56'3 5.8
2018-Jun-17 23:01N 29°16' W 094°59'3 6.0
2018-Jun-17 22:30N 29°14' W 095°01'3 5.7
2018-Jun-17 22:01N 29°12' W 095°03'3 6.1
2018-Jun-17 21:31N 29°10' W 095°06'3 5.1
2018-Jun-17 21:01N 29°09' W 095°09'3 5.3
2018-Jun-17 20:30N 29°07' W 095°11'2 4.4
2018-Jun-17 20:01N 29°05' W 095°12'3 6.0
2018-Jun-17 19:31N 29°03' W 095°14'3 6.2
2018-Jun-17 19:01N 28°60' W 095°15'3 6.1
2018-Jun-17 18:30N 28°57' W 095°17'2 4.7
2018-Jun-17 18:00N 28°56' W 095°20'1 1.6
2018-Jun-17 17:30N 28°57' W 095°20'0 0.0
2018-Jun-17 17:01N 28°57' W 095°20'0 0.0
2018-Jun-17 16:29N 28°57' W 095°20'0 0.0
2018-Jun-17 16:00N 28°57' W 095°20'0 0.0
2018-Jun-17 15:30N 28°57' W 095°20'2 2.1
2018-Jun-17 14:45N 28°57' W 095°18'1 5.1
2018-Jun-17 14:30N 28°58' W 095°17'3 5.5
2018-Jun-17 13:59N 28°60' W 095°15'3 5.8
2018-Jun-17 13:30N 29°02' W 095°14'3 5.9
2018-Jun-17 13:01N 29°05' W 095°12'34 3.7
2018-Jun-17 03:40N 29°37' W 094°57'1 8.5
2018-Jun-17 03:30N 29°38' W 094°58'6 0.2
2018-Jun-16 03:48N 29°43' W 095°01'2 6.2
2018-Jun-16 03:29N 29°42' W 094°60'3 6.9
2018-Jun-16 03:00N 29°39' W 094°58'16 7.4
2018-Jun-16 00:54N 29°25' W 094°49'3 6.8
2018-Jun-16 00:29N 29°22' W 094°48'5 4.9
2018-Jun-15 23:25N 29°26' W 094°43'0 0.1
2018-Jun-15 22:35N 29°26' W 094°43'1 5.4
2018-Jun-15 22:24N 29°25' W 094°44'3 5.7
2018-Jun-15 21:56N 29°23' W 094°46'3 6.0
2018-Jun-15 21:29N 29°21' W 094°49'2 4.8
2018-Jun-15 21:00N 29°20' W 094°51'3 5.8
2018-Jun-15 20:30N 29°18' W 094°53'2 4.9
2018-Jun-15 20:00N 29°17' W 094°56'3 5.3
2018-Jun-15 19:30N 29°17' W 094°59'3 5.9
2018-Jun-15 19:00N 29°14' W 095°01'3 5.4
2018-Jun-15 18:30N 29°12' W 095°03'2 4.2
2018-Jun-15 18:00N 29°11' W 095°05'3 5.6
2018-Jun-15 17:30N 29°10' W 095°08'3 5.9
2018-Jun-15 17:00N 29°08' W 095°10'3 5.8
2018-Jun-15 16:30N 29°05' W 095°12'3 6.5
2018-Jun-15 16:00N 29°02' W 095°14'6 6.1
2018-Jun-15 15:00N 28°57' W 095°18'2 4.6
2018-Jun-15 14:29N 28°56' W 095°20'1 1.2
2018-Jun-15 13:58N 28°57' W 095°20'0 0.0
2018-Jun-15 13:29N 28°57' W 095°20'0 0.1
2018-Jun-15 13:00N 28°57' W 095°20'0 0.1
2018-Jun-15 12:30N 28°57' W 095°20'1 1.4
2018-Jun-15 12:00N 28°56' W 095°20'3 6.5
2018-Jun-15 11:30N 28°58' W 095°17'3 6.3
2018-Jun-15 11:00N 29°01' W 095°15'3 6.6
2018-Jun-15 10:30N 29°04' W 095°13'3 6.7
2018-Jun-15 10:00N 29°07' W 095°12'3 6.9
2018-Jun-15 09:30N 29°09' W 095°09'4 7.5
2018-Jun-15 09:00N 29°11' W 095°05'2 4.3
2018-Jun-15 08:30N 29°12' W 095°03'0 0.0
2018-Jun-15 08:00N 29°12' W 095°03'3 5.1
2018-Jun-15 07:30N 29°14' W 095°01'3 6.4
2018-Jun-15 07:00N 29°17' W 094°59'3 6.3
2018-Jun-15 06:30N 29°17' W 094°55'1 2.5
2018-Jun-15 06:00N 29°17' W 094°54'2 4.3
2018-Jun-15 05:30N 29°19' W 094°52'3 6.8
2018-Jun-15 05:00N 29°21' W 094°49'3 5.7
2018-Jun-15 04:27N 29°23' W 094°52'2 4.8
2018-Jun-15 03:59N 29°22' W 094°54'1 2.3
2018-Jun-15 03:30N 29°22' W 094°53'3 5.2
2018-Jun-15 02:53N 29°22' W 094°50'1 3.6
2018-Jun-15 02:30N 29°23' W 094°49'4 7.8
2018-Jun-15 01:58N 29°27' W 094°51'5 7.7
2018-Jun-15 01:22N 29°31' W 094°53'3 7.2
2018-Jun-15 00:58N 29°34' W 094°55'4 7.0
2018-Jun-15 00:25N 29°37' W 094°57'4 7.1
2018-Jun-14 23:56N 29°40' W 094°59'  
Track history (hours):
 
Tides and Currents Weather Stations Pressure Air Temp Water Temp Dewpoint Dewpoint Depression Visibility Wind Speed Wind Dir Waves Ship Positions

Capt. Tom EchoLS Sr.

Owner: Echo Towing Service, Inc. P.O. Box 446 Baytown, Texas 77522, Baytown, TX. More information available from US FCC via Universal Licensing System and Coast Guard Vessel Documentation Center.

Last reported at 2018-Jun-24 20:00 UTC. Time now 2018-Jun-24 20:26 UTC.
Position N 29°25' W 094°49'.

Length 20 m; draft 2.4 m.

Type: . MMSI: 367125100.

Date/timePositionNaut miles runAvg speedWind from/ knotsBaromVisibWave heightAir tempDewpointWater temp
2018-Jun-24 20:00N 29°25' W 094°49'3 6.2
2018-Jun-24 19:29N 29°22' W 094°47'4 3.7
2018-Jun-24 18:17N 29°25' W 094°43'0 0.4
2018-Jun-24 17:52N 29°25' W 094°44'1 3.9
2018-Jun-24 17:30N 29°24' W 094°45'2 5.0
2018-Jun-24 17:00N 29°22' W 094°47'3 5.7
2018-Jun-24 16:30N 29°21' W 094°49'3 5.8
2018-Jun-24 16:00N 29°19' W 094°52'3 5.5
2018-Jun-24 15:30N 29°17' W 094°54'3 5.5
2018-Jun-24 14:55N 29°17' W 094°58'2 4.0
2018-Jun-24 14:30N 29°16' W 094°59'2 4.5
2018-Jun-24 14:00N 29°14' W 095°01'3 5.1
2018-Jun-24 13:30N 29°12' W 095°03'3 5.3
2018-Jun-24 13:00N 29°11' W 095°06'3 5.2
2018-Jun-24 12:30N 29°10' W 095°08'2 4.3
2018-Jun-24 12:00N 29°08' W 095°10'0 0.0
2018-Jun-24 11:30N 29°08' W 095°10'0 0.0
2018-Jun-24 11:00N 29°08' W 095°10'0 0.0
2018-Jun-24 10:30N 29°08' W 095°10'0 0.0
2018-Jun-24 10:00N 29°08' W 095°10'0 0.2
2018-Jun-24 09:30N 29°08' W 095°10'1 1.9
2018-Jun-24 09:00N 29°07' W 095°11'3 4.8
2018-Jun-24 08:28N 29°05' W 095°12'4 0.6
2018-Jun-24 01:20N 29°01' W 095°14'2 6.2
2018-Jun-24 00:58N 29°03' W 095°13'3 5.7
2018-Jun-24 00:30N 29°06' W 095°12'2 5.0
2018-Jun-24 00:01N 29°08' W 095°10'3 5.3
2018-Jun-23 23:30N 29°10' W 095°08'3 5.4
2018-Jun-23 22:53N 29°11' W 095°05'2 4.8
2018-Jun-23 22:31N 29°12' W 095°03'1 1.2
2018-Jun-23 22:00N 29°13' W 095°02'1 1.9
2018-Jun-23 21:30N 29°13' W 095°02'3 5.7
2018-Jun-23 21:00N 29°16' W 094°60'3 5.4
2018-Jun-23 20:31N 29°17' W 094°57'3 5.4
2018-Jun-23 20:01N 29°17' W 094°54'2 4.5
2018-Jun-23 19:30N 29°19' W 094°52'3 5.6
2018-Jun-23 19:01N 29°20' W 094°50'2 4.8
2018-Jun-23 18:30N 29°22' W 094°48'3 1.4
2018-Jun-23 16:19N 29°24' W 094°45'2 6.3
2018-Jun-23 16:00N 29°23' W 094°47'3 5.4
2018-Jun-23 15:30N 29°24' W 094°49'6 7.9
2018-Jun-23 14:45N 29°30' W 094°52'3 7.7
2018-Jun-23 14:20N 29°32' W 094°54'3 7.5
2018-Jun-23 13:59N 29°34' W 094°56'4 7.6
2018-Jun-23 13:30N 29°38' W 094°58'4 7.9
2018-Jun-23 13:01N 29°41' W 094°59'7 5.4
2018-Jun-23 11:38N 29°47' W 095°04'0 0.0
2018-Jun-23 11:29N 29°47' W 095°04'1 1.2
2018-Jun-23 10:54N 29°47' W 095°05'1 3.4
2018-Jun-23 10:29N 29°46' W 095°06'1 1.0
2018-Jun-23 09:57N 29°46' W 095°05'0 0.1
2018-Jun-23 09:29N 29°46' W 095°05'2 3.0
2018-Jun-23 08:51N 29°45' W 095°04'2 5.3
2018-Jun-23 08:30N 29°44' W 095°02'3 4.8
2018-Jun-23 07:54N 29°42' W 094°60'3 5.3
2018-Jun-23 07:21N 29°39' W 094°58'2 5.5
2018-Jun-23 06:57N 29°37' W 094°57'3 5.6
2018-Jun-23 06:30N 29°35' W 094°56'3 5.6
2018-Jun-23 06:00N 29°33' W 094°54'3 5.3
2018-Jun-23 05:30N 29°30' W 094°52'3 5.0
2018-Jun-23 04:59N 29°28' W 094°51'2 4.7
2018-Jun-23 04:30N 29°26' W 094°50'2 4.6
2018-Jun-23 03:59N 29°24' W 094°49'2 4.3
2018-Jun-23 03:31N 29°22' W 094°47'2 4.3
2018-Jun-23 03:01N 29°24' W 094°45'2 4.6
2018-Jun-23 02:30N 29°25' W 094°43'0 0.7
2018-Jun-23 02:01N 29°26' W 094°43'0 0.6
2018-Jun-23 01:30N 29°25' W 094°43'1 2.8
2018-Jun-23 01:00N 29°24' W 094°45'2 2.9
2018-Jun-23 00:27N 29°23' W 094°46'2 3.9
2018-Jun-23 00:00N 29°22' W 094°47'1 2.8
2018-Jun-22 23:29N 29°21' W 094°49'1 2.1
2018-Jun-22 23:00N 29°21' W 094°50'1 2.7
2018-Jun-22 22:31N 29°20' W 094°51'3 5.1
2018-Jun-22 22:01N 29°18' W 094°53'2 4.2
2018-Jun-22 21:31N 29°17' W 094°55'3 5.2
2018-Jun-22 21:01N 29°17' W 094°58'2 5.0
2018-Jun-22 20:31N 29°15' W 095°00'2 4.5
2018-Jun-22 20:01N 29°13' W 095°02'2 4.2
2018-Jun-22 19:30N 29°12' W 095°04'2 4.8
2018-Jun-22 19:01N 29°11' W 095°06'2 4.0
2018-Jun-22 18:30N 29°10' W 095°08'3 5.2
2018-Jun-22 18:01N 29°08' W 095°10'3 5.3
2018-Jun-22 17:31N 29°06' W 095°12'3 5.1
2018-Jun-22 17:01N 29°04' W 095°13'3 5.1
2018-Jun-22 16:31N 29°01' W 095°14'3 5.4
2018-Jun-22 16:00N 28°59' W 095°16'4 4.6
2018-Jun-22 15:02N 28°56' W 095°20'0 4.6
2018-Jun-22 15:00N 28°56' W 095°20'0 0.7
2018-Jun-22 14:30N 28°57' W 095°20'0 0.0
2018-Jun-22 14:00N 28°57' W 095°20'0 0.9
2018-Jun-22 13:30N 28°57' W 095°20'0 0.9
2018-Jun-22 13:01N 28°57' W 095°20'0 0.0
2018-Jun-22 12:29N 28°57' W 095°20'1 1.0
2018-Jun-22 11:59N 28°57' W 095°20'0 0.3
2018-Jun-22 11:25N 28°57' W 095°20'0 0.4
2018-Jun-22 11:00N 28°57' W 095°20'0 0.2
2018-Jun-22 10:27N 28°57' W 095°20'0 0.0
2018-Jun-22 09:59N 28°57' W 095°20'1 2.5
2018-Jun-22 09:29N 28°57' W 095°19'4 7.5
2018-Jun-22 09:01N 28°59' W 095°16'3 6.8
2018-Jun-22 08:31N 29°02' W 095°14'4 7.1
2018-Jun-22 08:01N 29°05' W 095°12'3 6.3
2018-Jun-22 07:31N 29°08' W 095°10'4 7.1
2018-Jun-22 07:01N 29°10' W 095°07'4 7.9
2018-Jun-22 06:31N 29°12' W 095°03'4 7.7
2018-Jun-22 06:01N 29°15' W 095°00'4 7.5
2018-Jun-22 05:31N 29°17' W 094°57'4 7.3
2018-Jun-22 05:00N 29°18' W 094°53'4 8.0
2018-Jun-22 04:29N 29°21' W 094°49'4 8.5
2018-Jun-22 04:00N 29°24' W 094°46'3 5.4
2018-Jun-22 03:30N 29°25' W 094°43'0 0.1
2018-Jun-22 03:00N 29°25' W 094°43'2 4.3
2018-Jun-22 02:27N 29°24' W 094°45'3 6.0
2018-Jun-22 02:00N 29°22' W 094°48'4 7.8
2018-Jun-22 01:28N 29°26' W 094°50'4 8.1
2018-Jun-22 00:59N 29°29' W 094°52'4 7.7
2018-Jun-22 00:28N 29°33' W 094°54'3 7.3
2018-Jun-22 00:00N 29°35' W 094°56'4 7.3
2018-Jun-21 23:29N 29°39' W 094°58'4 0.3
2018-Jun-21 08:29N 29°42' W 095°01'4 6.7
2018-Jun-21 07:56N 29°39' W 094°58'13 7.8
2018-Jun-21 06:20N 29°28' W 094°51'3 7.9
2018-Jun-21 05:55N 29°25' W 094°50'3 7.6
2018-Jun-21 05:30N 29°23' W 094°48'2 5.0
2018-Jun-21 05:00N 29°22' W 094°51'3 5.7
2018-Jun-21 04:30N 29°22' W 094°54'0 0.1
2018-Jun-21 04:00N 29°22' W 094°54'0 0.2
2018-Jun-21 03:31N 29°22' W 094°54'2 4.3
2018-Jun-21 02:58N 29°23' W 094°52'3 7.1
2018-Jun-21 02:30N 29°21' W 094°49'2 3.1
2018-Jun-21 02:00N 29°22' W 094°47'5 6.1
2018-Jun-21 01:13N 29°26' W 094°43'0 0.1
2018-Jun-21 01:00N 29°26' W 094°43'0 0.2
2018-Jun-21 00:25N 29°26' W 094°43'0 0.7
2018-Jun-20 23:56N 29°25' W 094°43'1 1.5
2018-Jun-20 23:17N 29°25' W 094°44'1 3.4
2018-Jun-20 22:51N 29°24' W 094°45'1 3.6
2018-Jun-20 22:30N 29°23' W 094°46'2 3.9
2018-Jun-20 21:58N 29°21' W 094°48'2 3.3
2018-Jun-20 21:30N 29°21' W 094°50'2 4.2
2018-Jun-20 20:58N 29°19' W 094°52'2 4.2
2018-Jun-20 20:30N 29°18' W 094°53'1 2.7
2018-Jun-20 20:00N 29°17' W 094°55'2 3.9
2018-Jun-20 19:30N 29°17' W 094°57'2 3.6
2018-Jun-20 19:00N 29°17' W 094°59'1 2.4
2018-Jun-20 18:30N 29°16' W 094°60'2 4.3
2018-Jun-20 18:00N 29°14' W 095°01'2 4.1
2018-Jun-20 17:30N 29°12' W 095°03'2 4.1
2018-Jun-20 17:00N 29°11' W 095°05'2 3.8
2018-Jun-20 16:30N 29°10' W 095°07'2 4.1
2018-Jun-20 16:01N 29°09' W 095°09'2 4.2
2018-Jun-20 15:30N 29°08' W 095°10'2 4.2
2018-Jun-20 15:00N 29°06' W 095°12'2 4.1
2018-Jun-20 14:30N 29°04' W 095°13'2 3.8
2018-Jun-20 14:00N 29°03' W 095°14'2 4.0
2018-Jun-20 13:30N 29°01' W 095°14'2 4.2
2018-Jun-20 13:00N 28°59' W 095°16'2 4.3
2018-Jun-20 12:30N 28°57' W 095°18'2 3.8
2018-Jun-20 11:52N 28°56' W 095°20'15 1.7
2018-Jun-20 03:14N 29°08' W 095°10'1 6.1
2018-Jun-20 03:00N 29°09' W 095°09'3 5.7
2018-Jun-20 02:30N 29°11' W 095°06'3 6.4
2018-Jun-20 02:00N 29°12' W 095°03'3 6.1
2018-Jun-20 01:30N 29°15' W 095°01'3 6.2
2018-Jun-20 01:00N 29°17' W 094°58'3 5.9
2018-Jun-20 00:30N 29°17' W 094°55'2 4.6
2018-Jun-20 00:00N 29°18' W 094°53'3 6.6
2018-Jun-19 23:29N 29°21' W 094°50'3 5.4
2018-Jun-19 23:00N 29°23' W 094°49'4 7.8
2018-Jun-19 22:26N 29°27' W 094°51'4 7.2
2018-Jun-19 21:53N 29°31' W 094°53'3 7.1
2018-Jun-19 21:29N 29°33' W 094°55'5 7.0
2018-Jun-19 20:49N 29°37' W 094°57'3 7.0
2018-Jun-19 20:27N 29°39' W 094°58'3 0.4
2018-Jun-19 13:19N 29°42' W 094°60'3 6.5
2018-Jun-19 12:49N 29°39' W 094°58'17 6.2
2018-Jun-19 10:08N 29°24' W 094°49'1 5.6
2018-Jun-19 10:00N 29°24' W 094°49'2 4.6
2018-Jun-19 09:29N 29°21' W 094°49'3 6.8
2018-Jun-19 09:00N 29°19' W 094°52'3 6.6
2018-Jun-19 08:30N 29°17' W 094°55'4 7.1
2018-Jun-19 08:00N 29°17' W 094°59'3 6.9
2018-Jun-19 07:30N 29°14' W 095°01'3 6.5
2018-Jun-19 07:00N 29°12' W 095°04'2 5.0
2018-Jun-19 06:30N 29°10' W 095°06'2 5.0
2018-Jun-19 06:00N 29°09' W 095°09'3 5.6
2018-Jun-19 05:30N 29°07' W 095°11'3 6.2
2018-Jun-19 05:00N 29°04' W 095°13'3 6.0
2018-Jun-19 04:30N 29°02' W 095°14'3 5.8
2018-Jun-19 04:00N 28°59' W 095°16'4 4.6
2018-Jun-19 03:03N 28°57' W 095°20'0 1.0
2018-Jun-19 02:58N 28°57' W 095°20'0 0.1
2018-Jun-19 02:26N 28°57' W 095°20'2 2.8
2018-Jun-19 01:46N 28°57' W 095°18'2 6.0
2018-Jun-19 01:30N 28°59' W 095°17'0 0.7
2018-Jun-19 01:00N 28°59' W 095°16'3 6.0
2018-Jun-19 00:30N 29°01' W 095°14'3 6.2
2018-Jun-19 00:00N 29°04' W 095°13'3 6.0
2018-Jun-18 23:30N 29°07' W 095°12'3 6.1
2018-Jun-18 23:00N 29°09' W 095°09'3 5.6
2018-Jun-18 22:30N 29°10' W 095°06'3 5.7
2018-Jun-18 22:00N 29°12' W 095°04'3 5.5
2018-Jun-18 21:30N 29°14' W 095°01'3 5.9
2018-Jun-18 21:00N 29°16' W 094°59'3 5.7
2018-Jun-18 20:30N 29°17' W 094°56'3 5.1
2018-Jun-18 20:00N 29°18' W 094°53'3 5.7
2018-Jun-18 19:29N 29°20' W 094°51'3 5.6
2018-Jun-18 18:59N 29°21' W 094°48'6 3.5
2018-Jun-18 17:15N 29°26' W 094°43'0 0.0
2018-Jun-18 16:53N 29°26' W 094°43'1 2.6
2018-Jun-18 16:26N 29°25' W 094°44'3 6.6
2018-Jun-18 16:00N 29°23' W 094°47'2 3.9
2018-Jun-18 15:30N 29°23' W 094°49'3 5.9
2018-Jun-18 15:00N 29°26' W 094°50'4 7.0
2018-Jun-18 14:27N 29°30' W 094°52'5 7.6
2018-Jun-18 13:46N 29°34' W 094°55'3 7.7
2018-Jun-18 13:19N 29°37' W 094°57'3 8.2
2018-Jun-18 12:58N 29°40' W 094°58'5 1.2
2018-Jun-18 08:41N 29°44' W 095°02'2 4.5
2018-Jun-18 08:18N 29°42' W 095°01'2 5.2
2018-Jun-18 08:00N 29°42' W 094°59'3 5.1
2018-Jun-18 07:29N 29°39' W 094°58'16 5.5
2018-Jun-18 04:31N 29°25' W 094°49'0 5.0
2018-Jun-18 04:29N 29°24' W 094°49'2 5.1
2018-Jun-18 04:00N 29°22' W 094°48'2 4.5
2018-Jun-18 03:30N 29°22' W 094°51'2 4.4
2018-Jun-18 02:58N 29°22' W 094°53'1 1.8
2018-Jun-18 02:30N 29°22' W 094°54'0 0.0
2018-Jun-18 02:01N 29°22' W 094°54'4 4.5
2018-Jun-18 01:02N 29°22' W 094°49'1 6.4
2018-Jun-18 00:57N 29°22' W 094°49'2 4.7
2018-Jun-18 00:31N 29°20' W 094°50'3 6.1
2018-Jun-18 00:00N 29°18' W 094°53'3 5.2
2018-Jun-17 23:31N 29°17' W 094°56'3 5.8
2018-Jun-17 23:01N 29°16' W 094°59'3 6.0
2018-Jun-17 22:30N 29°14' W 095°01'3 5.7
2018-Jun-17 22:01N 29°12' W 095°03'3 6.1
2018-Jun-17 21:31N 29°10' W 095°06'3 5.1
2018-Jun-17 21:01N 29°09' W 095°09'3 5.3
2018-Jun-17 20:30N 29°07' W 095°11'2 4.4
2018-Jun-17 20:01N 29°05' W 095°12'3 6.0
2018-Jun-17 19:31N 29°03' W 095°14'3 6.2
2018-Jun-17 19:01N 28°60' W 095°15'3 6.1
2018-Jun-17 18:30N 28°57' W 095°17'2 4.7
2018-Jun-17 18:00N 28°56' W 095°20'1 1.6
2018-Jun-17 17:30N 28°57' W 095°20'0 0.0
2018-Jun-17 17:01N 28°57' W 095°20'0 0.0
2018-Jun-17 16:29N 28°57' W 095°20'0 0.0
2018-Jun-17 16:00N 28°57' W 095°20'0 0.0
2018-Jun-17 15:30N 28°57' W 095°20'2 2.1
2018-Jun-17 14:45N 28°57' W 095°18'1 5.1
2018-Jun-17 14:30N 28°58' W 095°17'3 5.5
2018-Jun-17 13:59N 28°60' W 095°15'3 5.8
2018-Jun-17 13:30N 29°02' W 095°14'3 5.9
2018-Jun-17 13:01N 29°05' W 095°12'34 3.7
2018-Jun-17 03:40N 29°37' W 094°57'1 8.5
2018-Jun-17 03:30N 29°38' W 094°58'6 0.2
2018-Jun-16 03:48N 29°43' W 095°01'2 6.2
2018-Jun-16 03:29N 29°42' W 094°60'3 6.9
2018-Jun-16 03:00N 29°39' W 094°58'16 7.4
2018-Jun-16 00:54N 29°25' W 094°49'3 6.8
2018-Jun-16 00:29N 29°22' W 094°48'5 4.9
2018-Jun-15 23:25N 29°26' W 094°43'0 0.1
2018-Jun-15 22:35N 29°26' W 094°43'1 5.4
2018-Jun-15 22:24N 29°25' W 094°44'3 5.7
2018-Jun-15 21:56N 29°23' W 094°46'3 6.0
2018-Jun-15 21:29N 29°21' W 094°49'2 4.8
2018-Jun-15 21:00N 29°20' W 094°51'3 5.8
2018-Jun-15 20:30N 29°18' W 094°53'2 4.9
2018-Jun-15 20:00N 29°17' W 094°56'3 5.3
2018-Jun-15 19:30N 29°17' W 094°59'3 5.9
2018-Jun-15 19:00N 29°14' W 095°01'3 5.4
2018-Jun-15 18:30N 29°12' W 095°03'2 4.2
2018-Jun-15 18:00N 29°11' W 095°05'3 5.6
2018-Jun-15 17:30N 29°10' W 095°08'3 5.9
2018-Jun-15 17:00N 29°08' W 095°10'3 5.8
2018-Jun-15 16:30N 29°05' W 095°12'3 6.5
2018-Jun-15 16:00N 29°02' W 095°14'6 6.1
2018-Jun-15 15:00N 28°57' W 095°18'2 4.6
2018-Jun-15 14:29N 28°56' W 095°20'1 1.2
2018-Jun-15 13:58N 28°57' W 095°20'0 0.0
2018-Jun-15 13:29N 28°57' W 095°20'0 0.1
2018-Jun-15 13:00N 28°57' W 095°20'0 0.1
2018-Jun-15 12:30N 28°57' W 095°20'1 1.4
2018-Jun-15 12:00N 28°56' W 095°20'3 6.5
2018-Jun-15 11:30N 28°58' W 095°17'3 6.3
2018-Jun-15 11:00N 29°01' W 095°15'3 6.6
2018-Jun-15 10:30N 29°04' W 095°13'3 6.7
2018-Jun-15 10:00N 29°07' W 095°12'3 6.9
2018-Jun-15 09:30N 29°09' W 095°09'4 7.5
2018-Jun-15 09:00N 29°11' W 095°05'2 4.3
2018-Jun-15 08:30N 29°12' W 095°03'0 0.0
2018-Jun-15 08:00N 29°12' W 095°03'3 5.1
2018-Jun-15 07:30N 29°14' W 095°01'3 6.4
2018-Jun-15 07:00N 29°17' W 094°59'3 6.3
2018-Jun-15 06:30N 29°17' W 094°55'1 2.5
2018-Jun-15 06:00N 29°17' W 094°54'2 4.3
2018-Jun-15 05:30N 29°19' W 094°52'3 6.8
2018-Jun-15 05:00N 29°21' W 094°49'3 5.7
2018-Jun-15 04:27N 29°23' W 094°52'2 4.8
2018-Jun-15 03:59N 29°22' W 094°54'1 2.3
2018-Jun-15 03:30N 29°22' W 094°53'3 5.2
2018-Jun-15 02:53N 29°22' W 094°50'1 3.6
2018-Jun-15 02:30N 29°23' W 094°49'4 7.8
2018-Jun-15 01:58N 29°27' W 094°51'5 7.7
2018-Jun-15 01:22N 29°31' W 094°53'3 7.2
2018-Jun-15 00:58N 29°34' W 094°55'4 7.0
2018-Jun-15 00:25N 29°37' W 094°57'4 7.1
2018-Jun-14 23:56N 29°40' W 094°59'  

Dump ship's entire track history